Treherne, Canada
Current Conditions -  °F | °C
As of 9:00 PM on Friday 19 Dec 2014 (Local Time) from CYBR Reporting Station
Freezing Drizzle Freezing Drizzle  
Wind Chill: 17°   Ceiling: 500
Heat Index: 23°   Visibility: 2mi
Dew Point: 21°   Wind: 5mph
Humidity: 93%   Direction: 70°ENE
Pressure: 29.97"   Gusts: NA
Location:  49.63°N, 98.7°W
Report Text: CYBR 200300Z 07004KT 2SM -FZDZ BR OVC005 M05/M06 A2997 RMK ST8 SLP179
Loading
Personal Weather Stations






























Interactive Weather Map New forecast layout! Learn more

10-Day Weather Forecast

Advertisements
Track Severe Weather on mobile